createdAt,value
2018-08-03T00:01:13.399Z,99.90
2018-08-03T00:03:42.727Z,99.90
2018-08-03T00:06:11.949Z,99.90
2018-08-03T00:08:41.093Z,99.90
2018-08-03T00:11:10.299Z,99.90
2018-08-03T00:13:39.539Z,99.90
2018-08-03T00:16:08.748Z,99.90
2018-08-03T00:18:37.891Z,99.90
2018-08-03T00:21:07.399Z,99.90
2018-08-03T00:23:36.778Z,99.90
2018-08-03T00:26:06.191Z,99.90
2018-08-03T00:28:35.344Z,99.90
2018-08-03T00:31:04.745Z,99.90
2018-08-03T00:33:33.943Z,99.90
2018-08-03T00:36:03.292Z,99.90
2018-08-03T00:38:32.479Z,99.90
2018-08-03T00:41:01.664Z,99.90
2018-08-03T00:43:30.841Z,99.90
2018-08-03T00:45:59.994Z,99.90
2018-08-03T00:48:29.140Z,99.90
2018-08-03T00:50:58.628Z,99.90
2018-08-03T00:53:27.831Z,99.90
2018-08-03T00:55:56.975Z,99.90
2018-08-03T00:58:26.327Z,99.90
2018-08-03T01:00:55.717Z,99.90
2018-08-03T01:03:24.891Z,99.90
2018-08-03T01:05:54.039Z,99.90
2018-08-03T01:08:23.221Z,99.90
2018-08-03T01:10:52.358Z,99.90
2018-08-03T01:13:21.804Z,99.90
2018-08-03T01:15:50.979Z,99.90
2018-08-03T01:18:20.171Z,99.90
2018-08-03T01:20:49.368Z,99.90
2018-08-03T01:23:18.536Z,99.90
2018-08-03T01:25:47.762Z,99.90
2018-08-03T01:28:17.020Z,99.90
2018-08-03T01:30:46.221Z,99.90
2018-08-03T01:33:15.427Z,99.90
2018-08-03T01:35:44.596Z,99.90
2018-08-03T01:38:13.850Z,99.90
2018-08-03T01:40:43.021Z,99.90
2018-08-03T01:43:12.219Z,99.90
2018-08-03T01:45:41.383Z,99.90
2018-08-03T01:48:11.110Z,99.90
2018-08-03T01:50:40.400Z,99.90
2018-08-03T01:53:09.636Z,99.90
2018-08-03T01:55:38.827Z,99.90
2018-08-03T01:58:08.053Z,99.90
2018-08-03T02:00:37.231Z,99.90
2018-08-03T02:03:06.455Z,99.90
2018-08-03T02:05:35.679Z,99.90
2018-08-03T02:08:04.870Z,99.90
2018-08-03T02:10:34.116Z,99.90
2018-08-03T02:13:03.291Z,99.90
2018-08-03T02:15:32.519Z,99.90
2018-08-03T02:18:01.741Z,99.90
2018-08-03T02:20:30.960Z,99.90
2018-08-03T02:23:00.116Z,99.90
2018-08-03T02:25:29.304Z,99.90
2018-08-03T02:27:58.503Z,99.90
2018-08-03T02:30:27.692Z,99.90
2018-08-03T02:32:56.868Z,99.90
2018-08-03T02:35:26.104Z,99.90
2018-08-03T02:37:55.345Z,99.90
2018-08-03T02:40:24.557Z,99.90
2018-08-03T02:42:53.913Z,99.90
2018-08-03T02:45:23.144Z,99.90
2018-08-03T02:47:52.299Z,99.90
2018-08-03T02:50:21.528Z,99.90
2018-08-03T02:52:50.699Z,99.90
2018-08-03T02:55:19.908Z,99.90
2018-08-03T02:57:49.074Z,99.90
2018-08-03T03:00:18.261Z,99.90
2018-08-03T03:02:47.491Z,99.90
2018-08-03T03:05:16.669Z,99.90
2018-08-03T03:07:45.913Z,99.90
2018-08-03T03:10:15.112Z,99.90
2018-08-03T03:12:44.573Z,99.90
2018-08-03T03:15:13.752Z,99.90
2018-08-03T03:17:43.139Z,99.90
2018-08-03T03:20:12.344Z,99.90
2018-08-03T03:22:41.602Z,99.90
2018-08-03T03:25:10.763Z,99.90
2018-08-03T03:27:39.971Z,99.90
2018-08-03T03:30:09.447Z,99.90
2018-08-03T03:32:38.778Z,99.90
2018-08-03T03:35:07.964Z,99.90
2018-08-03T03:37:37.333Z,99.90
2018-08-03T03:40:06.740Z,99.90
2018-08-03T03:42:36.029Z,99.90
2018-08-03T03:45:05.467Z,99.90
2018-08-03T03:47:34.631Z,99.90
2018-08-03T03:50:04.288Z,99.90
2018-08-03T03:52:33.476Z,99.90
2018-08-03T03:55:02.704Z,99.90
2018-08-03T03:57:31.870Z,99.90
2018-08-03T04:00:01.171Z,99.90
2018-08-03T04:02:30.423Z,99.90
2018-08-03T04:04:59.812Z,99.90
2018-08-03T04:07:29.020Z,99.90
2018-08-03T04:09:58.244Z,99.90
2018-08-03T04:12:27.673Z,99.90
2018-08-03T04:14:56.906Z,99.90
2018-08-03T04:17:26.074Z,99.90
2018-08-03T04:19:55.359Z,99.90
2018-08-03T04:22:24.612Z,99.90
2018-08-03T04:24:53.924Z,99.90
2018-08-03T04:27:23.141Z,99.90
2018-08-03T04:29:52.331Z,99.90
2018-08-03T04:32:21.563Z,99.90
2018-08-03T04:34:50.758Z,99.90
2018-08-03T04:37:19.992Z,99.90
2018-08-03T04:39:49.168Z,99.90
2018-08-03T04:42:18.417Z,99.90
2018-08-03T04:44:47.512Z,99.90
2018-08-03T04:47:16.721Z,99.90
2018-08-03T04:49:46.127Z,99.90
2018-08-03T04:52:15.287Z,99.90
2018-08-03T04:54:44.572Z,99.90
2018-08-03T04:57:13.917Z,99.90
2018-08-03T04:59:43.080Z,99.90
2018-08-03T05:02:12.744Z,99.90
2018-08-03T05:04:41.960Z,99.90
2018-08-03T05:09:39.943Z,99.90
2018-08-03T05:12:09.538Z,99.90
2018-08-03T05:14:38.692Z,99.90
2018-08-03T05:17:07.874Z,99.90
2018-08-03T05:19:37.431Z,99.90
2018-08-03T05:22:06.597Z,99.90
2018-08-03T05:27:04.712Z,99.90
2018-08-03T05:29:33.967Z,99.90
2018-08-03T05:32:03.582Z,99.90
2018-08-03T05:34:32.903Z,99.90
2018-08-03T05:37:02.055Z,99.90
2018-08-03T05:39:31.247Z,99.90
2018-08-03T05:42:00.451Z,99.90
2018-08-03T05:44:29.773Z,99.90
2018-08-03T05:49:27.799Z,99.90
2018-08-03T05:51:56.947Z,98.80
2018-08-03T05:54:26.135Z,97.70
2018-08-03T05:56:55.276Z,97.50
2018-08-03T05:59:24.441Z,96.70
2018-08-03T06:04:22.483Z,94.90
2018-08-03T06:06:51.724Z,94.40
2018-08-03T06:09:20.928Z,93.00
2018-08-03T06:11:50.111Z,91.90
2018-08-03T06:14:19.277Z,89.40
2018-08-03T06:16:48.556Z,86.30
2018-08-03T06:19:17.759Z,83.40
2018-08-03T06:21:46.977Z,85.00
2018-08-03T06:24:16.155Z,83.00
2018-08-03T06:26:45.416Z,82.10
2018-08-03T06:29:14.672Z,79.40
2018-08-03T06:31:43.953Z,78.00
2018-08-03T06:34:13.091Z,76.20
2018-08-03T06:36:42.275Z,77.80
2018-08-03T06:39:12.422Z,75.10
2018-08-03T06:41:42.140Z,73.60
2018-08-03T06:44:11.354Z,73.50
2018-08-03T06:46:40.665Z,74.10
2018-08-03T06:49:09.866Z,72.20
2018-08-03T06:51:39.207Z,69.50
2018-08-03T06:54:08.471Z,70.20
2018-08-03T06:56:37.780Z,67.60
2018-08-03T06:59:07.020Z,65.80
2018-08-03T07:01:36.172Z,68.10
2018-08-03T07:04:05.416Z,64.50
2018-08-03T07:06:34.680Z,61.90
2018-08-03T07:09:05.966Z,61.00
2018-08-03T07:11:35.116Z,60.30
2018-08-03T07:14:04.353Z,58.50
2018-08-03T07:16:33.655Z,58.10
2018-08-03T07:19:02.823Z,56.70
2018-08-03T07:21:32.033Z,58.00
2018-08-03T07:24:01.285Z,57.30
2018-08-03T07:26:30.508Z,56.50
2018-08-03T07:28:59.748Z,55.50
2018-08-03T07:31:29.007Z,56.60
2018-08-03T07:33:58.208Z,53.90
2018-08-03T07:36:27.797Z,54.80
2018-08-03T07:38:57.058Z,53.80
2018-08-03T07:41:26.303Z,53.40
2018-08-03T07:43:55.488Z,52.90
2018-08-03T07:46:24.680Z,52.70
2018-08-03T07:48:53.891Z,52.60
2018-08-03T07:51:23.168Z,51.70
2018-08-03T07:53:52.346Z,51.20
2018-08-03T07:56:21.557Z,49.70
2018-08-03T08:01:19.509Z,48.50
2018-08-03T08:03:48.700Z,51.70
2018-08-03T08:06:17.928Z,50.40
2018-08-03T08:08:47.067Z,49.60
2018-08-03T08:11:16.216Z,49.90
2018-08-03T08:13:45.452Z,51.10
2018-08-03T08:16:14.763Z,48.80
2018-08-03T08:18:43.972Z,48.20
2018-08-03T08:21:13.140Z,47.60
2018-08-03T08:23:42.485Z,48.70
2018-08-03T08:26:11.739Z,48.10
2018-08-03T08:28:40.888Z,46.60
2018-08-03T08:31:10.100Z,48.70
2018-08-03T08:36:08.027Z,50.30
2018-08-03T08:38:37.256Z,48.20
2018-08-03T08:41:07.229Z,48.30
2018-08-03T08:43:36.442Z,47.10
2018-08-03T08:46:05.611Z,47.30
2018-08-03T08:48:34.779Z,47.00
2018-08-03T08:51:04.097Z,47.40
2018-08-03T08:53:33.283Z,48.40
2018-08-03T08:56:02.457Z,47.20
2018-08-03T08:58:31.630Z,49.80
2018-08-03T09:01:00.844Z,47.40
2018-08-03T09:03:29.995Z,47.80
2018-08-03T09:05:59.223Z,46.90
2018-08-03T09:08:28.495Z,47.00
2018-08-03T09:10:57.684Z,46.30
2018-08-03T09:13:27.216Z,46.00
2018-08-03T09:15:56.347Z,46.90
2018-08-03T09:18:25.591Z,46.20
2018-08-03T09:23:23.575Z,44.70
2018-08-03T09:25:52.828Z,45.10
2018-08-03T09:28:22.091Z,45.20
2018-08-03T09:30:51.341Z,45.20
2018-08-03T09:33:20.470Z,46.80
2018-08-03T09:35:49.681Z,45.80
2018-08-03T09:38:19.002Z,45.40
2018-08-03T09:40:48.215Z,44.70
2018-08-03T09:43:17.385Z,45.00
2018-08-03T09:45:46.637Z,45.40
2018-08-03T09:48:15.867Z,46.30
2018-08-03T09:50:45.077Z,47.20
2018-08-03T09:53:14.308Z,45.80
2018-08-03T09:55:43.549Z,45.50
2018-08-03T09:58:12.730Z,45.50
2018-08-03T10:00:47.271Z,46.40
2018-08-03T10:03:16.463Z,47.00
2018-08-03T10:05:45.624Z,47.10
2018-08-03T10:08:14.838Z,47.60
2018-08-03T10:10:44.041Z,49.40
2018-08-03T10:13:13.275Z,47.50
2018-08-03T10:15:42.618Z,47.00
2018-08-03T10:20:40.733Z,47.60
2018-08-03T10:23:10.140Z,46.50
2018-08-03T10:25:39.356Z,46.10
2018-08-03T10:28:08.572Z,46.40
2018-08-03T10:30:37.746Z,46.20
2018-08-03T10:33:06.948Z,44.20
2018-08-03T10:35:36.144Z,44.50
2018-08-03T10:38:05.364Z,43.40
2018-08-03T10:40:34.581Z,43.90
2018-08-03T10:43:03.969Z,43.20
2018-08-03T10:45:33.162Z,43.20
2018-08-03T10:48:02.336Z,43.40
2018-08-03T10:50:31.602Z,42.00
2018-08-03T10:53:00.964Z,43.60
2018-08-03T10:55:30.275Z,44.90
2018-08-03T10:57:59.427Z,42.40
2018-08-03T11:00:30.280Z,42.60
2018-08-03T11:03:00.291Z,42.90
2018-08-03T11:05:29.787Z,43.50
2018-08-03T11:07:59.103Z,43.70
2018-08-03T11:10:28.284Z,43.60
2018-08-03T11:12:57.528Z,43.40
2018-08-03T11:15:26.979Z,43.10
2018-08-03T11:17:56.232Z,44.10
2018-08-03T11:20:25.451Z,42.70
2018-08-03T11:22:54.755Z,42.80
2018-08-03T11:25:23.983Z,43.80
2018-08-03T11:27:53.168Z,43.70
2018-08-03T11:32:51.236Z,45.70
2018-08-03T11:35:20.468Z,46.90
2018-08-03T11:37:49.783Z,46.20
2018-08-03T11:40:19.013Z,46.20
2018-08-03T11:42:48.280Z,45.00
2018-08-03T11:45:17.488Z,43.80
2018-08-03T11:47:46.852Z,44.70
2018-08-03T11:50:18.540Z,45.20
2018-08-03T11:52:47.829Z,44.90
2018-08-03T11:55:17.052Z,46.50
2018-08-03T11:57:46.256Z,46.10
2018-08-03T12:00:15.456Z,45.00
2018-08-03T12:02:44.715Z,46.40
2018-08-03T12:05:13.888Z,47.30
2018-08-03T12:07:43.089Z,45.80
2018-08-03T12:10:12.269Z,46.30
2018-08-03T12:12:41.504Z,45.60
2018-08-03T12:15:10.691Z,45.90
2018-08-03T12:17:39.907Z,45.90
2018-08-03T12:20:09.060Z,45.10
2018-08-03T12:25:07.972Z,45.90
2018-08-03T12:27:37.191Z,46.50
2018-08-03T12:30:06.392Z,46.40
2018-08-03T12:32:35.614Z,46.60
2018-08-03T12:35:04.827Z,46.60
2018-08-03T12:37:34.034Z,46.90
2018-08-03T12:40:03.306Z,47.50
2018-08-03T12:42:32.808Z,45.90
2018-08-03T12:45:02.128Z,47.00
2018-08-03T12:47:31.283Z,46.70
2018-08-03T12:50:00.543Z,45.70
2018-08-03T12:52:29.765Z,46.00
2018-08-03T12:54:59.194Z,46.70
2018-08-03T12:57:28.327Z,47.60
2018-08-03T12:59:57.516Z,47.40
2018-08-03T13:02:26.653Z,48.40
2018-08-03T13:04:55.805Z,46.10
2018-08-03T13:07:25.114Z,46.10
2018-08-03T13:09:54.187Z,46.30
2018-08-03T13:12:23.384Z,46.60
2018-08-03T13:14:52.695Z,47.00
2018-08-03T13:17:21.910Z,48.00
2018-08-03T13:20:04.673Z,46.10
2018-08-03T13:22:33.915Z,45.90
2018-08-03T13:25:03.445Z,47.60
2018-08-03T13:27:32.640Z,48.10
2018-08-03T13:30:02.032Z,47.50
2018-08-03T13:32:31.196Z,45.90
2018-08-03T13:35:00.751Z,45.60
2018-08-03T13:37:29.924Z,46.10
2018-08-03T13:39:59.090Z,47.20
2018-08-03T13:42:28.316Z,47.20
2018-08-03T13:44:57.575Z,46.80
2018-08-03T13:47:26.837Z,46.80
2018-08-03T13:49:56.207Z,47.70
2018-08-03T13:52:25.580Z,47.40
2018-08-03T13:54:54.788Z,49.70
2018-08-03T13:57:24.114Z,47.90
2018-08-03T13:59:55.257Z,46.50
2018-08-03T14:02:26.550Z,46.40
2018-08-03T14:04:56.256Z,45.40
2018-08-03T14:07:26.824Z,46.80
2018-08-03T14:09:55.987Z,48.00
2018-08-03T14:12:25.156Z,46.90
2018-08-03T14:14:54.468Z,46.20
2018-08-03T14:17:24.070Z,48.60
2018-08-03T14:19:53.276Z,46.60
2018-08-03T14:22:22.839Z,48.00
2018-08-03T14:24:52.083Z,48.90
2018-08-03T14:27:21.416Z,48.00
2018-08-03T14:29:50.694Z,49.10
2018-08-03T14:32:20.005Z,48.10
2018-08-03T14:34:49.408Z,46.60
2018-08-03T14:37:19.227Z,46.40
2018-08-03T14:39:48.487Z,47.70
2018-08-03T14:42:17.725Z,46.30
2018-08-03T14:44:47.191Z,46.70
2018-08-03T14:47:16.416Z,46.90
2018-08-03T14:49:45.660Z,46.10
2018-08-03T14:52:14.892Z,49.00
2018-08-03T14:54:44.042Z,48.60
2018-08-03T14:57:13.298Z,47.20
2018-08-03T14:59:42.517Z,47.40
2018-08-03T15:02:11.712Z,47.00
2018-08-03T15:04:41.023Z,49.00
2018-08-03T15:07:10.220Z,46.20
2018-08-03T15:09:39.357Z,46.80
2018-08-03T15:12:08.541Z,45.60
2018-08-03T15:14:37.779Z,46.80
2018-08-03T15:17:07.363Z,44.70
2018-08-03T15:19:36.520Z,44.90
2018-08-03T15:22:05.803Z,43.20
2018-08-03T15:24:35.031Z,43.40
2018-08-03T15:27:04.479Z,43.60
2018-08-03T15:29:33.725Z,44.00
2018-08-03T15:32:02.926Z,44.40
2018-08-03T15:34:32.142Z,43.50
2018-08-03T15:37:01.649Z,46.80
2018-08-03T15:39:30.852Z,46.30
2018-08-03T15:42:00.461Z,47.50
2018-08-03T15:44:29.717Z,46.30
2018-08-03T15:46:58.951Z,48.30
2018-08-03T15:49:28.927Z,48.00
2018-08-03T15:51:58.102Z,47.60
2018-08-03T15:54:27.308Z,46.90
2018-08-03T15:56:56.626Z,48.30
2018-08-03T15:59:25.812Z,46.90
2018-08-03T16:01:54.994Z,47.30
2018-08-03T16:04:24.162Z,47.20
2018-08-03T16:06:53.352Z,48.70
2018-08-03T16:09:22.628Z,47.20
2018-08-03T16:11:51.900Z,46.50
2018-08-03T16:14:21.121Z,47.30
2018-08-03T16:16:50.301Z,46.80
2018-08-03T16:19:19.726Z,48.00
2018-08-03T16:24:18.528Z,48.30
2018-08-03T16:26:47.788Z,47.50
2018-08-03T16:29:17.090Z,47.90
2018-08-03T16:31:46.291Z,47.70
2018-08-03T16:34:15.496Z,47.70
2018-08-03T16:36:44.748Z,46.90
2018-08-03T16:39:13.976Z,47.90
2018-08-03T16:41:43.248Z,47.30
2018-08-03T16:44:12.489Z,48.50
2018-08-03T16:46:41.725Z,47.60
2018-08-03T16:49:10.926Z,48.80
2018-08-03T16:51:40.240Z,48.00
2018-08-03T16:54:09.476Z,48.10
2018-08-03T16:56:38.668Z,47.70
2018-08-03T16:59:07.906Z,47.60
2018-08-03T17:01:37.136Z,48.20
2018-08-03T17:04:06.465Z,47.90
2018-08-03T17:06:35.697Z,48.90
2018-08-03T17:09:07.893Z,49.10
2018-08-03T17:11:37.176Z,49.00
2018-08-03T17:14:06.476Z,48.20
2018-08-03T17:16:36.057Z,47.60
2018-08-03T17:19:05.374Z,48.00
2018-08-03T17:21:34.643Z,47.70
2018-08-03T17:24:04.406Z,47.70
2018-08-03T17:26:33.920Z,48.20
2018-08-03T17:29:03.340Z,47.80
2018-08-03T17:31:32.731Z,48.30
2018-08-03T17:34:02.241Z,48.60
2018-08-03T17:36:31.549Z,48.50
2018-08-03T17:39:00.922Z,49.10
2018-08-03T17:41:30.207Z,50.40
2018-08-03T17:43:59.563Z,49.80
2018-08-03T17:46:28.914Z,50.50
2018-08-03T17:48:58.172Z,49.80
2018-08-03T17:51:27.420Z,50.50
2018-08-03T17:53:56.699Z,50.20
2018-08-03T17:56:26.009Z,52.60
2018-08-03T17:58:55.247Z,51.50
2018-08-03T18:01:24.585Z,52.30
2018-08-03T18:03:54.350Z,52.80
2018-08-03T18:06:23.556Z,53.20
2018-08-03T18:08:52.863Z,52.20
2018-08-03T18:11:22.181Z,53.70
2018-08-03T18:13:51.416Z,52.10
2018-08-03T18:16:20.741Z,52.20
2018-08-03T18:18:50.145Z,52.60
2018-08-03T18:21:19.388Z,54.20
2018-08-03T18:23:48.832Z,53.40
2018-08-03T18:28:47.185Z,53.60
2018-08-03T18:33:45.242Z,53.90
2018-08-03T18:36:14.907Z,54.90
2018-08-03T18:38:44.287Z,55.10
2018-08-03T18:41:13.541Z,55.20
2018-08-03T18:43:42.832Z,55.70
2018-08-03T18:46:12.168Z,56.00
2018-08-03T18:48:41.372Z,57.60
2018-08-03T18:51:11.580Z,58.30
2018-08-03T18:53:41.005Z,57.60
2018-08-03T18:56:10.180Z,57.80
2018-08-03T18:58:39.530Z,58.10
2018-08-03T19:01:08.776Z,58.60
2018-08-03T19:03:38.241Z,59.40
2018-08-03T19:08:36.421Z,60.10
2018-08-03T19:11:06.316Z,60.00
2018-08-03T19:13:35.573Z,59.60
2018-08-03T19:16:04.796Z,59.30
2018-08-03T19:18:34.121Z,59.90
2018-08-03T19:21:03.657Z,61.10
2018-08-03T19:28:30.998Z,61.10
2018-08-03T19:31:00.989Z,62.30
2018-08-03T19:33:30.230Z,61.70
2018-08-03T19:35:59.460Z,63.00
2018-08-03T19:38:28.652Z,62.30
2018-08-03T19:40:57.860Z,64.00
2018-08-03T19:43:27.037Z,63.50
2018-08-03T19:48:25.132Z,64.10
2018-08-03T19:53:23.361Z,65.50
2018-08-03T19:55:52.709Z,66.60
2018-08-03T19:58:22.090Z,67.10
2018-08-03T20:00:51.696Z,65.60
2018-08-03T20:03:21.205Z,65.30
2018-08-03T20:05:50.432Z,65.60
2018-08-03T20:10:48.578Z,65.90
2018-08-03T20:13:17.945Z,66.00
2018-08-03T20:15:47.284Z,66.10
2018-08-03T20:18:16.511Z,67.40
2018-08-03T20:20:45.765Z,68.30
2018-08-03T20:23:16.176Z,69.60
2018-08-03T20:25:45.484Z,68.60
2018-08-03T20:28:14.708Z,69.10
2018-08-03T20:30:44.156Z,70.40
2018-08-03T20:33:13.420Z,70.40
2018-08-03T20:35:42.627Z,70.90
2018-08-03T20:38:11.907Z,72.10
2018-08-03T20:40:41.158Z,72.70
2018-08-03T20:45:39.233Z,73.40
2018-08-03T20:50:37.436Z,74.80
2018-08-03T20:53:06.737Z,76.10
2018-08-03T20:55:36.064Z,77.10
2018-08-03T20:58:05.404Z,78.90
2018-08-03T21:00:34.641Z,79.20
2018-08-03T21:03:04.093Z,80.60
2018-08-03T21:05:33.348Z,81.60
2018-08-03T21:10:31.449Z,85.00
2018-08-03T21:13:00.777Z,86.70
2018-08-03T21:15:29.981Z,88.00
2018-08-03T21:17:59.320Z,89.70
2018-08-03T21:20:28.576Z,90.70
2018-08-03T21:22:57.861Z,91.60
2018-08-03T21:25:27.096Z,92.90
2018-08-03T21:27:56.352Z,93.70
2018-08-03T21:30:25.617Z,94.50
2018-08-03T21:32:54.926Z,95.60
2018-08-03T21:35:24.246Z,96.10
2018-08-03T21:37:53.416Z,96.60
2018-08-03T21:40:22.692Z,97.30
2018-08-03T21:42:52.065Z,97.90
2018-08-03T21:45:21.269Z,98.40
2018-08-03T21:47:50.582Z,99.20
2018-08-03T21:50:19.911Z,99.70
2018-08-03T21:52:49.140Z,99.90
2018-08-03T21:55:18.360Z,99.90
2018-08-03T21:57:47.587Z,99.90
2018-08-03T22:00:21.886Z,99.90
2018-08-03T22:02:51.496Z,99.90
2018-08-03T22:05:20.814Z,99.90
2018-08-03T22:10:19.764Z,99.90
2018-08-03T22:12:49.118Z,99.90
2018-08-03T22:15:18.428Z,99.90
2018-08-03T22:17:47.738Z,99.90
2018-08-03T22:20:17.056Z,99.90
2018-08-03T22:22:46.910Z,99.90
2018-08-03T22:25:16.127Z,99.90
2018-08-03T22:27:45.471Z,99.90
2018-08-03T22:30:14.884Z,99.90
2018-08-03T22:32:44.246Z,99.90
2018-08-03T22:35:13.463Z,99.90
2018-08-03T22:37:44.258Z,99.90
2018-08-03T22:40:13.429Z,99.90
2018-08-03T22:42:42.755Z,99.90
2018-08-03T22:45:12.272Z,99.90
2018-08-03T22:47:41.512Z,99.90
2018-08-03T22:50:10.884Z,99.90
2018-08-03T22:52:40.188Z,99.90
2018-08-03T22:55:09.607Z,99.90
2018-08-03T22:57:38.926Z,99.90
2018-08-03T23:00:08.922Z,99.90
2018-08-03T23:02:38.228Z,99.90
2018-08-03T23:05:07.431Z,99.90
2018-08-03T23:07:36.619Z,99.90
2018-08-03T23:10:06.333Z,99.90
2018-08-03T23:12:35.503Z,99.90
2018-08-03T23:15:04.879Z,99.90
2018-08-03T23:17:34.033Z,99.90
2018-08-03T23:20:03.245Z,99.90
2018-08-03T23:22:32.555Z,99.90
2018-08-03T23:25:01.951Z,99.90
2018-08-03T23:27:31.282Z,99.90
2018-08-03T23:30:00.471Z,99.90
2018-08-03T23:32:29.852Z,99.90
2018-08-03T23:34:59.003Z,99.90
2018-08-03T23:37:28.295Z,99.90
2018-08-03T23:39:57.860Z,99.90
2018-08-03T23:42:27.280Z,99.90
2018-08-03T23:44:56.470Z,99.90
2018-08-03T23:47:25.712Z,99.90
2018-08-03T23:49:54.945Z,99.90
2018-08-03T23:52:24.256Z,99.90
2018-08-03T23:54:53.498Z,99.90
2018-08-03T23:57:22.738Z,99.90
2018-08-03T23:59:52.114Z,99.90
